CAX3 weather

Public forecast

Using degrees Celsius for public forecast. Weather courtesy of forecast.io.

Closest aviation weather report (METAR) to Sechelt/Porpoise Bay Water Aerodrome

Closest report is Nanaimo Airport, 26.1 nm (48.3 km) S. Retrieved 2020/08/11 01:00 UTC (43 minutes ago):

CYCD 110100Z 01005KT 30SM FEW055 FEW090 SCT250 25/09 A2999 RMK CU1AC1CI2 SLP158 DENSITY ALT 1200FT

Closest aviation forecast (TAF) to Sechelt/Porpoise Bay Water Aerodrome

Closest forecast is Nanaimo Airport, 26.1 nm (48.3 km) S. Retrieved 2020-08-11 00:00 UTC (2 hours ago):

TAF CYCD 102338Z 1100/1104 36008KT P6SM FEW050 FEW250 BECMG 1102/1104 VRB03KT RMK NXT FCST WILL BE ISSUED AT 111445Z